sensor_id;sensor_type;location;lat;lon;timestamp;temperature;humidity
44723;DHT22;30451;48.638;10.624;2022-11-20T00:00:42;22.40;56.40
44723;DHT22;30451;48.638;10.624;2022-11-20T00:03:07;22.40;56.40
44723;DHT22;30451;48.638;10.624;2022-11-20T00:05:33;22.50;56.40
44723;DHT22;30451;48.638;10.624;2022-11-20T00:07:59;22.40;56.40
44723;DHT22;30451;48.638;10.624;2022-11-20T00:10:24;22.50;56.40
44723;DHT22;30451;48.638;10.624;2022-11-20T00:12:50;22.50;56.50
44723;DHT22;30451;48.638;10.624;2022-11-20T00:15:15;22.40;56.50
44723;DHT22;30451;48.638;10.624;2022-11-20T00:17:41;22.50;56.50
44723;DHT22;30451;48.638;10.624;2022-11-20T00:20:07;22.50;56.50
44723;DHT22;30451;48.638;10.624;2022-11-20T00:22:33;22.50;56.40
44723;DHT22;30451;48.638;10.624;2022-11-20T00:24:58;22.40;56.30
44723;DHT22;30451;48.638;10.624;2022-11-20T00:27:24;22.50;56.30
44723;DHT22;30451;48.638;10.624;2022-11-20T00:29:49;22.50;56.40
44723;DHT22;30451;48.638;10.624;2022-11-20T00:32:15;22.50;56.40
44723;DHT22;30451;48.638;10.624;2022-11-20T00:34:41;22.50;56.40
44723;DHT22;30451;48.638;10.624;2022-11-20T00:37:06;22.50;56.30
44723;DHT22;30451;48.638;10.624;2022-11-20T00:39:32;22.50;56.40
44723;DHT22;30451;48.638;10.624;2022-11-20T00:41:57;22.50;56.40
44723;DHT22;30451;48.638;10.624;2022-11-20T00:44:23;22.50;56.40
44723;DHT22;30451;48.638;10.624;2022-11-20T00:46:49;22.50;56.40
44723;DHT22;30451;48.638;10.624;2022-11-20T00:49:14;22.50;56.40
44723;DHT22;30451;48.638;10.624;2022-11-20T00:51:40;22.40;56.40
44723;DHT22;30451;48.638;10.624;2022-11-20T00:54:05;22.40;56.40
44723;DHT22;30451;48.638;10.624;2022-11-20T00:56:31;22.40;56.50
44723;DHT22;30451;48.638;10.624;2022-11-20T00:58:59;22.40;56.50
44723;DHT22;30451;48.638;10.624;2022-11-20T01:01:26;22.40;56.50
44723;DHT22;30451;48.638;10.624;2022-11-20T01:03:53;22.40;56.60
44723;DHT22;30451;48.638;10.624;2022-11-20T01:06:22;22.30;56.60
44723;DHT22;30451;48.638;10.624;2022-11-20T01:08:49;22.30;56.60
44723;DHT22;30451;48.638;10.624;2022-11-20T01:11:18;22.30;56.60
44723;DHT22;30451;48.638;10.624;2022-11-20T01:13:46;22.30;56.70
44723;DHT22;30451;48.638;10.624;2022-11-20T01:16:15;22.30;56.80
44723;DHT22;30451;48.638;10.624;2022-11-20T01:18:44;22.30;56.70
44723;DHT22;30451;48.638;10.624;2022-11-20T01:21:31;22.20;56.80
44723;DHT22;30451;48.638;10.624;2022-11-20T01:23:59;22.20;56.80
44723;DHT22;30451;48.638;10.624;2022-11-20T01:26:30;22.20;56.90
44723;DHT22;30451;48.638;10.624;2022-11-20T01:28:57;22.20;56.90
44723;DHT22;30451;48.638;10.624;2022-11-20T01:31:26;22.20;56.90
44723;DHT22;30451;48.638;10.624;2022-11-20T01:33:54;22.20;57.00
44723;DHT22;30451;48.638;10.624;2022-11-20T01:36:21;22.10;56.90
44723;DHT22;30451;48.638;10.624;2022-11-20T01:38:47;22.10;57.00
44723;DHT22;30451;48.638;10.624;2022-11-20T01:41:14;22.20;57.10
44723;DHT22;30451;48.638;10.624;2022-11-20T01:44:01;22.10;57.10
44723;DHT22;30451;48.638;10.624;2022-11-20T01:46:27;22.10;57.10
44723;DHT22;30451;48.638;10.624;2022-11-20T01:49:00;22.10;57.20
44723;DHT22;30451;48.638;10.624;2022-11-20T01:51:42;22.10;57.20
44723;DHT22;30451;48.638;10.624;2022-11-20T01:54:12;22.00;57.20
44723;DHT22;30451;48.638;10.624;2022-11-20T01:56:39;22.00;57.20
44723;DHT22;30451;48.638;10.624;2022-11-20T01:59:08;22.00;57.30
44723;DHT22;30451;48.638;10.624;2022-11-20T02:01:34;22.00;57.30
44723;DHT22;30451;48.638;10.624;2022-11-20T02:04:00;22.00;57.30
44723;DHT22;30451;48.638;10.624;2022-11-20T02:06:30;21.90;57.50
44723;DHT22;30451;48.638;10.624;2022-11-20T02:08:58;21.90;57.60
44723;DHT22;30451;48.638;10.624;2022-11-20T02:11:23;21.90;57.70
44723;DHT22;30451;48.638;10.624;2022-11-20T02:13:49;21.90;57.70
44723;DHT22;30451;48.638;10.624;2022-11-20T02:16:20;21.90;57.80
44723;DHT22;30451;48.638;10.624;2022-11-20T02:18:47;21.90;57.90
44723;DHT22;30451;48.638;10.624;2022-11-20T02:24:14;21.80;58.00
44723;DHT22;30451;48.638;10.624;2022-11-20T02:26:53;21.80;58.00
44723;DHT22;30451;48.638;10.624;2022-11-20T02:30:12;21.80;58.00
44723;DHT22;30451;48.638;10.624;2022-11-20T02:32:34;21.80;58.10
44723;DHT22;30451;48.638;10.624;2022-11-20T02:37:56;21.70;58.10
44723;DHT22;30451;48.638;10.624;2022-11-20T02:40:22;21.70;58.20
44723;DHT22;30451;48.638;10.624;2022-11-20T02:42:51;21.70;58.20
44723;DHT22;30451;48.638;10.624;2022-11-20T02:45:17;21.70;58.10
44723;DHT22;30451;48.638;10.624;2022-11-20T02:47:42;21.70;58.10
44723;DHT22;30451;48.638;10.624;2022-11-20T02:50:08;21.70;58.00
44723;DHT22;30451;48.638;10.624;2022-11-20T02:52:34;21.70;58.00
44723;DHT22;30451;48.638;10.624;2022-11-20T02:54:59;21.70;58.00
44723;DHT22;30451;48.638;10.624;2022-11-20T02:57:26;21.70;58.00
44723;DHT22;30451;48.638;10.624;2022-11-20T02:59:51;21.60;57.90
44723;DHT22;30451;48.638;10.624;2022-11-20T03:02:17;21.60;57.90
44723;DHT22;30451;48.638;10.624;2022-11-20T03:04:42;21.60;57.90
44723;DHT22;30451;48.638;10.624;2022-11-20T03:07:08;21.60;57.90
44723;DHT22;30451;48.638;10.624;2022-11-20T03:09:34;21.60;57.90
44723;DHT22;30451;48.638;10.624;2022-11-20T03:11:59;21.60;57.90
44723;DHT22;30451;48.638;10.624;2022-11-20T03:14:25;21.60;57.90
44723;DHT22;30451;48.638;10.624;2022-11-20T03:16:51;21.50;57.90
44723;DHT22;30451;48.638;10.624;2022-11-20T03:19:16;21.50;57.90
44723;DHT22;30451;48.638;10.624;2022-11-20T03:21:42;21.50;57.90
44723;DHT22;30451;48.638;10.624;2022-11-20T03:24:07;21.50;57.90
44723;DHT22;30451;48.638;10.624;2022-11-20T03:26:33;21.50;57.90
44723;DHT22;30451;48.638;10.624;2022-11-20T03:29:01;21.50;58.40
44723;DHT22;30451;48.638;10.624;2022-11-20T03:31:34;21.50;58.00
44723;DHT22;30451;48.638;10.624;2022-11-20T03:34:00;21.50;57.90
44723;DHT22;30451;48.638;10.624;2022-11-20T03:36:27;21.40;57.90
44723;DHT22;30451;48.638;10.624;2022-11-20T03:38:56;21.40;57.90
44723;DHT22;30451;48.638;10.624;2022-11-20T03:41:30;21.40;57.90
44723;DHT22;30451;48.638;10.624;2022-11-20T03:43:57;21.40;57.90
44723;DHT22;30451;48.638;10.624;2022-11-20T03:46:23;21.40;57.90
44723;DHT22;30451;48.638;10.624;2022-11-20T03:48:49;21.40;57.90
44723;DHT22;30451;48.638;10.624;2022-11-20T03:51:21;21.40;58.00
44723;DHT22;30451;48.638;10.624;2022-11-20T03:53:48;21.30;58.00
44723;DHT22;30451;48.638;10.624;2022-11-20T03:56:17;21.30;58.00
44723;DHT22;30451;48.638;10.624;2022-11-20T03:58:43;21.30;58.00
44723;DHT22;30451;48.638;10.624;2022-11-20T04:01:17;21.30;58.00
44723;DHT22;30451;48.638;10.624;2022-11-20T04:03:43;21.30;58.00
44723;DHT22;30451;48.638;10.624;2022-11-20T04:06:14;21.30;58.00
44723;DHT22;30451;48.638;10.624;2022-11-20T04:08:41;21.30;58.10
44723;DHT22;30451;48.638;10.624;2022-11-20T04:11:14;21.30;58.10
44723;DHT22;30451;48.638;10.624;2022-11-20T04:13:42;21.20;58.00
44723;DHT22;30451;48.638;10.624;2022-11-20T04:16:09;21.20;58.00
44723;DHT22;30451;48.638;10.624;2022-11-20T04:18:35;21.20;58.00
44723;DHT22;30451;48.638;10.624;2022-11-20T04:21:02;21.20;58.60
44723;DHT22;30451;48.638;10.624;2022-11-20T04:23:28;21.20;58.00
44723;DHT22;30451;48.638;10.624;2022-11-20T04:25:54;21.20;58.00
44723;DHT22;30451;48.638;10.624;2022-11-20T04:28:20;21.10;58.00
44723;DHT22;30451;48.638;10.624;2022-11-20T04:30:45;21.20;58.10
44723;DHT22;30451;48.638;10.624;2022-11-20T04:33:11;21.20;58.10
44723;DHT22;30451;48.638;10.624;2022-11-20T04:35:37;21.20;58.20
44723;DHT22;30451;48.638;10.624;2022-11-20T04:38:03;21.10;58.10
44723;DHT22;30451;48.638;10.624;2022-11-20T04:40:29;21.10;58.10
44723;DHT22;30451;48.638;10.624;2022-11-20T04:42:55;21.10;58.10
44723;DHT22;30451;48.638;10.624;2022-11-20T04:45:22;21.10;58.10
44723;DHT22;30451;48.638;10.624;2022-11-20T04:47:48;21.10;58.20
44723;DHT22;30451;48.638;10.624;2022-11-20T04:50:14;21.10;58.20
44723;DHT22;30451;48.638;10.624;2022-11-20T04:52:39;21.10;58.20
44723;DHT22;30451;48.638;10.624;2022-11-20T04:55:05;21.10;58.20
44723;DHT22;30451;48.638;10.624;2022-11-20T04:57:31;21.10;58.20
44723;DHT22;30451;48.638;10.624;2022-11-20T04:59:57;21.10;58.70
44723;DHT22;30451;48.638;10.624;2022-11-20T05:02:22;21.10;58.30
44723;DHT22;30451;48.638;10.624;2022-11-20T05:04:48;21.00;58.20
44723;DHT22;30451;48.638;10.624;2022-11-20T05:07:14;21.00;58.20
44723;DHT22;30451;48.638;10.624;2022-11-20T05:09:39;21.00;58.20
44723;DHT22;30451;48.638;10.624;2022-11-20T05:12:07;21.00;58.20
44723;DHT22;30451;48.638;10.624;2022-11-20T05:14:33;21.00;58.20
44723;DHT22;30451;48.638;10.624;2022-11-20T05:16:59;21.00;58.20
44723;DHT22;30451;48.638;10.624;2022-11-20T05:19:24;21.00;58.20
44723;DHT22;30451;48.638;10.624;2022-11-20T05:21:50;21.00;58.20
44723;DHT22;30451;48.638;10.624;2022-11-20T05:24:16;21.00;58.30
44723;DHT22;30451;48.638;10.624;2022-11-20T05:26:41;21.00;58.30
44723;DHT22;30451;48.638;10.624;2022-11-20T05:29:12;21.00;58.30
44723;DHT22;30451;48.638;10.624;2022-11-20T05:31:40;21.00;58.30
44723;DHT22;30451;48.638;10.624;2022-11-20T05:34:06;21.00;58.30
44723;DHT22;30451;48.638;10.624;2022-11-20T05:36:32;21.00;58.30
44723;DHT22;30451;48.638;10.624;2022-11-20T05:38:57;21.00;58.30
44723;DHT22;30451;48.638;10.624;2022-11-20T05:41:23;20.90;58.30
44723;DHT22;30451;48.638;10.624;2022-11-20T05:43:50;20.90;58.30
44723;DHT22;30451;48.638;10.624;2022-11-20T05:46:18;20.90;58.30
44723;DHT22;30451;48.638;10.624;2022-11-20T05:48:45;20.90;58.30
44723;DHT22;30451;48.638;10.624;2022-11-20T05:51:13;20.90;58.30
44723;DHT22;30451;48.638;10.624;2022-11-20T05:53:39;20.90;58.30
44723;DHT22;30451;48.638;10.624;2022-11-20T05:56:08;20.90;58.30
44723;DHT22;30451;48.638;10.624;2022-11-20T05:58:35;20.90;58.30
44723;DHT22;30451;48.638;10.624;2022-11-20T06:01:08;20.90;58.30
44723;DHT22;30451;48.638;10.624;2022-11-20T06:03:35;20.90;58.30
44723;DHT22;30451;48.638;10.624;2022-11-20T06:06:01;20.90;58.30
44723;DHT22;30451;48.638;10.624;2022-11-20T06:08:28;20.90;58.30
44723;DHT22;30451;48.638;10.624;2022-11-20T06:10:53;20.90;58.40
44723;DHT22;30451;48.638;10.624;2022-11-20T06:13:19;20.80;58.30
44723;DHT22;30451;48.638;10.624;2022-11-20T06:15:52;20.90;58.40
44723;DHT22;30451;48.638;10.624;2022-11-20T06:18:17;20.80;58.30
44723;DHT22;30451;48.638;10.624;2022-11-20T06:20:43;20.80;58.40
44723;DHT22;30451;48.638;10.624;2022-11-20T06:23:09;20.80;58.40
44723;DHT22;30451;48.638;10.624;2022-11-20T06:25:42;20.80;58.40
44723;DHT22;30451;48.638;10.624;2022-11-20T06:28:08;20.80;58.40
44723;DHT22;30451;48.638;10.624;2022-11-20T06:30:34;20.80;58.40
44723;DHT22;30451;48.638;10.624;2022-11-20T06:33:00;20.80;58.40
44723;DHT22;30451;48.638;10.624;2022-11-20T06:35:26;20.80;58.40
44723;DHT22;30451;48.638;10.624;2022-11-20T06:37:51;20.80;58.50
44723;DHT22;30451;48.638;10.624;2022-11-20T06:40:17;20.80;58.50
44723;DHT22;30451;48.638;10.624;2022-11-20T06:42:42;20.70;58.40
44723;DHT22;30451;48.638;10.624;2022-11-20T06:45:08;20.80;58.50
44723;DHT22;30451;48.638;10.624;2022-11-20T06:47:34;20.70;58.50
44723;DHT22;30451;48.638;10.624;2022-11-20T06:50:00;20.70;58.50
44723;DHT22;30451;48.638;10.624;2022-11-20T06:52:25;20.70;58.50
44723;DHT22;30451;48.638;10.624;2022-11-20T06:54:51;20.70;58.50
44723;DHT22;30451;48.638;10.624;2022-11-20T06:57:17;20.70;58.60
44723;DHT22;30451;48.638;10.624;2022-11-20T06:59:42;20.70;58.60
44723;DHT22;30451;48.638;10.624;2022-11-20T07:02:11;20.70;58.60
44723;DHT22;30451;48.638;10.624;2022-11-20T07:04:38;20.70;58.60
44723;DHT22;30451;48.638;10.624;2022-11-20T07:07:04;20.70;59.10
44723;DHT22;30451;48.638;10.624;2022-11-20T07:09:29;20.70;58.60
44723;DHT22;30451;48.638;10.624;2022-11-20T07:11:55;20.70;58.60
44723;DHT22;30451;48.638;10.624;2022-11-20T07:14:20;20.70;58.70
44723;DHT22;30451;48.638;10.624;2022-11-20T07:16:46;20.70;58.70
44723;DHT22;30451;48.638;10.624;2022-11-20T07:19:12;20.70;58.70
44723;DHT22;30451;48.638;10.624;2022-11-20T07:21:37;20.70;58.70
44723;DHT22;30451;48.638;10.624;2022-11-20T07:24:03;20.60;58.60
44723;DHT22;30451;48.638;10.624;2022-11-20T07:26:29;20.70;58.70
44723;DHT22;30451;48.638;10.624;2022-11-20T07:28:54;20.60;58.70
44723;DHT22;30451;48.638;10.624;2022-11-20T07:31:20;20.60;58.70
44723;DHT22;30451;48.638;10.624;2022-11-20T07:33:46;20.60;58.70
44723;DHT22;30451;48.638;10.624;2022-11-20T07:36:12;20.60;58.70
44723;DHT22;30451;48.638;10.624;2022-11-20T07:38:37;20.60;58.70
44723;DHT22;30451;48.638;10.624;2022-11-20T07:41:03;20.60;58.70
44723;DHT22;30451;48.638;10.624;2022-11-20T07:43:29;20.60;58.70
44723;DHT22;30451;48.638;10.624;2022-11-20T07:45:56;20.60;58.70
44723;DHT22;30451;48.638;10.624;2022-11-20T07:48:22;20.60;58.70
44723;DHT22;30451;48.638;10.624;2022-11-20T07:50:47;20.60;58.70
44723;DHT22;30451;48.638;10.624;2022-11-20T07:53:13;20.60;58.80
44723;DHT22;30451;48.638;10.624;2022-11-20T07:55:39;20.60;58.80
44723;DHT22;30451;48.638;10.624;2022-11-20T07:58:05;20.60;58.80
44723;DHT22;30451;48.638;10.624;2022-11-20T08:00:31;20.60;58.80
44723;DHT22;30451;48.638;10.624;2022-11-20T08:02:56;20.60;58.80
44723;DHT22;30451;48.638;10.624;2022-11-20T08:05:23;20.50;58.80
44723;DHT22;30451;48.638;10.624;2022-11-20T08:07:49;20.60;58.80
44723;DHT22;30451;48.638;10.624;2022-11-20T08:10:15;20.60;58.80
44723;DHT22;30451;48.638;10.624;2022-11-20T08:12:46;20.50;58.80
44723;DHT22;30451;48.638;10.624;2022-11-20T08:15:31;20.60;58.80
44723;DHT22;30451;48.638;10.624;2022-11-20T08:18:08;20.60;58.80
44723;DHT22;30451;48.638;10.624;2022-11-20T08:20:35;20.60;58.90
44723;DHT22;30451;48.638;10.624;2022-11-20T08:23:02;20.50;58.80
44723;DHT22;30451;48.638;10.624;2022-11-20T08:25:29;20.50;58.90
44723;DHT22;30451;48.638;10.624;2022-11-20T08:28:00;20.50;58.80
44723;DHT22;30451;48.638;10.624;2022-11-20T08:30:26;20.50;58.80
44723;DHT22;30451;48.638;10.624;2022-11-20T08:32:53;20.50;58.80
44723;DHT22;30451;48.638;10.624;2022-11-20T08:35:19;20.50;58.80
44723;DHT22;30451;48.638;10.624;2022-11-20T08:37:48;20.50;58.90
44723;DHT22;30451;48.638;10.624;2022-11-20T08:40:14;20.50;58.80
44723;DHT22;30451;48.638;10.624;2022-11-20T08:42:47;20.50;58.80
44723;DHT22;30451;48.638;10.624;2022-11-20T08:45:13;20.50;58.90
44723;DHT22;30451;48.638;10.624;2022-11-20T08:47:38;20.50;58.90
44723;DHT22;30451;48.638;10.624;2022-11-20T08:50:04;20.50;58.90
44723;DHT22;30451;48.638;10.624;2022-11-20T08:52:30;20.50;58.90
44723;DHT22;30451;48.638;10.624;2022-11-20T08:54:56;20.50;58.90
44723;DHT22;30451;48.638;10.624;2022-11-20T08:57:21;20.50;58.90
44723;DHT22;30451;48.638;10.624;2022-11-20T08:59:47;20.40;58.80
44723;DHT22;30451;48.638;10.624;2022-11-20T09:02:12;20.50;59.00
44723;DHT22;30451;48.638;10.624;2022-11-20T09:04:38;20.40;58.90
44723;DHT22;30451;48.638;10.624;2022-11-20T09:07:03;20.40;58.90
44723;DHT22;30451;48.638;10.624;2022-11-20T09:09:29;20.40;59.00
44723;DHT22;30451;48.638;10.624;2022-11-20T09:11:55;20.40;58.90
44723;DHT22;30451;48.638;10.624;2022-11-20T09:14:20;20.40;59.00
44723;DHT22;30451;48.638;10.624;2022-11-20T09:16:46;20.40;59.00
44723;DHT22;30451;48.638;10.624;2022-11-20T09:19:12;20.50;59.50
44723;DHT22;30451;48.638;10.624;2022-11-20T09:21:38;20.50;59.60
44723;DHT22;30451;48.638;10.624;2022-11-20T09:24:04;20.60;59.70
44723;DHT22;30451;48.638;10.624;2022-11-20T09:26:30;20.60;59.50
44723;DHT22;30451;48.638;10.624;2022-11-20T09:28:56;20.60;59.60
44723;DHT22;30451;48.638;10.624;2022-11-20T09:31:24;20.70;59.50
44723;DHT22;30451;48.638;10.624;2022-11-20T09:33:50;20.80;59.30
44723;DHT22;30451;48.638;10.624;2022-11-20T09:36:15;20.90;59.20
44723;DHT22;30451;48.638;10.624;2022-11-20T09:38:46;21.00;59.00
44723;DHT22;30451;48.638;10.624;2022-11-20T09:44:10;21.20;58.60
44723;DHT22;30451;48.638;10.624;2022-11-20T09:46:53;21.20;58.40
44723;DHT22;30451;48.638;10.624;2022-11-20T09:52:00;21.40;57.90
44723;DHT22;30451;48.638;10.624;2022-11-20T09:54:33;21.50;57.70
44723;DHT22;30451;48.638;10.624;2022-11-20T09:57:03;21.60;57.50
44723;DHT22;30451;48.638;10.624;2022-11-20T09:59:43;21.70;57.20
44723;DHT22;30451;48.638;10.624;2022-11-20T10:05:12;21.80;56.90
44723;DHT22;30451;48.638;10.624;2022-11-20T10:13:06;21.90;56.80
44723;DHT22;30451;48.638;10.624;2022-11-20T10:29:18;22.30;56.00
44723;DHT22;30451;48.638;10.624;2022-11-20T10:31:48;22.40;56.00
44723;DHT22;30451;48.638;10.624;2022-11-20T10:34:32;22.50;55.90
44723;DHT22;30451;48.638;10.624;2022-11-20T10:37:04;22.50;55.70
44723;DHT22;30451;48.638;10.624;2022-11-20T10:39:38;22.60;55.60
44723;DHT22;30451;48.638;10.624;2022-11-20T10:42:10;22.60;55.50
44723;DHT22;30451;48.638;10.624;2022-11-20T10:44:36;22.70;55.40
44723;DHT22;30451;48.638;10.624;2022-11-20T10:47:24;22.80;55.30
44723;DHT22;30451;48.638;10.624;2022-11-20T10:49:55;22.90;55.40
44723;DHT22;30451;48.638;10.624;2022-11-20T10:58:45;23.00;54.70
44723;DHT22;30451;48.638;10.624;2022-11-20T11:01:18;23.00;54.60
44723;DHT22;30451;48.638;10.624;2022-11-20T11:03:44;23.00;54.50
44723;DHT22;30451;48.638;10.624;2022-11-20T11:06:25;23.00;55.00
44723;DHT22;30451;48.638;10.624;2022-11-20T11:08:56;22.90;54.40
44723;DHT22;30451;48.638;10.624;2022-11-20T11:11:29;22.90;54.40
44723;DHT22;30451;48.638;10.624;2022-11-20T11:14:11;22.90;54.30
44723;DHT22;30451;48.638;10.624;2022-11-20T11:16:55;22.90;54.20
44723;DHT22;30451;48.638;10.624;2022-11-20T11:19:22;22.90;54.20
44723;DHT22;30451;48.638;10.624;2022-11-20T11:21:51;22.90;54.00
44723;DHT22;30451;48.638;10.624;2022-11-20T11:27:14;22.80;54.10
44723;DHT22;30451;48.638;10.624;2022-11-20T11:29:42;22.80;54.10
44723;DHT22;30451;48.638;10.624;2022-11-20T11:32:14;22.80;54.10
44723;DHT22;30451;48.638;10.624;2022-11-20T11:34:39;22.70;54.10
44723;DHT22;30451;48.638;10.624;2022-11-20T11:37:13;22.70;54.10
44723;DHT22;30451;48.638;10.624;2022-11-20T11:39:42;22.70;54.20
44723;DHT22;30451;48.638;10.624;2022-11-20T11:42:12;22.70;54.30
44723;DHT22;30451;48.638;10.624;2022-11-20T11:44:44;22.60;54.30
44723;DHT22;30451;48.638;10.624;2022-11-20T11:47:37;22.60;54.90
44723;DHT22;30451;48.638;10.624;2022-11-20T11:55:23;22.60;54.80
44723;DHT22;30451;48.638;10.624;2022-11-20T11:57:57;22.60;54.90
44723;DHT22;30451;48.638;10.624;2022-11-20T12:00:26;22.50;55.00
44723;DHT22;30451;48.638;10.624;2022-11-20T12:03:18;22.50;55.10
44723;DHT22;30451;48.638;10.624;2022-11-20T12:05:56;22.50;55.10
44723;DHT22;30451;48.638;10.624;2022-11-20T12:11:16;22.40;55.30
44723;DHT22;30451;48.638;10.624;2022-11-20T12:14:02;22.40;55.30
44723;DHT22;30451;48.638;10.624;2022-11-20T12:16:35;22.40;55.40
44723;DHT22;30451;48.638;10.624;2022-11-20T12:19:02;22.30;55.40
44723;DHT22;30451;48.638;10.624;2022-11-20T12:24:49;22.30;55.40
44723;DHT22;30451;48.638;10.624;2022-11-20T12:47:23;22.20;55.90
44723;DHT22;30451;48.638;10.624;2022-11-20T12:50:00;22.10;56.00
44723;DHT22;30451;48.638;10.624;2022-11-20T12:58:21;22.10;56.10
44723;DHT22;30451;48.638;10.624;2022-11-20T13:01:17;22.00;56.10
44723;DHT22;30451;48.638;10.624;2022-11-20T13:06:39;22.00;56.30
44723;DHT22;30451;48.638;10.624;2022-11-20T13:09:09;22.00;56.30
44723;DHT22;30451;48.638;10.624;2022-11-20T13:14:26;22.00;56.30
44723;DHT22;30451;48.638;10.624;2022-11-20T13:19:40;21.90;56.40
44723;DHT22;30451;48.638;10.624;2022-11-20T13:22:08;21.90;56.40
44723;DHT22;30451;48.638;10.624;2022-11-20T13:24:33;21.90;56.40
44723;DHT22;30451;48.638;10.624;2022-11-20T13:29:35;21.90;56.40
44723;DHT22;30451;48.638;10.624;2022-11-20T13:32:15;21.90;56.50
44723;DHT22;30451;48.638;10.624;2022-11-20T13:34:55;21.90;56.50
44723;DHT22;30451;48.638;10.624;2022-11-20T13:37:31;21.80;56.40
44723;DHT22;30451;48.638;10.624;2022-11-20T13:42:43;21.90;56.60
44723;DHT22;30451;48.638;10.624;2022-11-20T13:45:22;21.90;56.50
44723;DHT22;30451;48.638;10.624;2022-11-20T13:47:49;21.90;56.70
44723;DHT22;30451;48.638;10.624;2022-11-20T13:50:15;21.90;56.70
44723;DHT22;30451;48.638;10.624;2022-11-20T13:55:54;22.00;56.70
44723;DHT22;30451;48.638;10.624;2022-11-20T14:01:20;21.90;56.70
44723;DHT22;30451;48.638;10.624;2022-11-20T14:03:47;21.90;56.60
44723;DHT22;30451;48.638;10.624;2022-11-20T14:07:00;22.00;57.40
44723;DHT22;30451;48.638;10.624;2022-11-20T14:11:52;22.00;56.60
44723;DHT22;30451;48.638;10.624;2022-11-20T14:14:20;22.00;56.60
44723;DHT22;30451;48.638;10.624;2022-11-20T14:16:47;22.00;56.60
44723;DHT22;30451;48.638;10.624;2022-11-20T14:19:28;22.00;57.10
44723;DHT22;30451;48.638;10.624;2022-11-20T14:22:22;22.00;56.60
44723;DHT22;30451;48.638;10.624;2022-11-20T14:25:00;22.00;56.60
44723;DHT22;30451;48.638;10.624;2022-11-20T14:27:26;22.10;56.70
44723;DHT22;30451;48.638;10.624;2022-11-20T14:29:52;22.10;56.60
44723;DHT22;30451;48.638;10.624;2022-11-20T14:32:19;22.10;56.60
44723;DHT22;30451;48.638;10.624;2022-11-20T14:34:48;22.10;56.60
44723;DHT22;30451;48.638;10.624;2022-11-20T14:37:20;22.10;56.50
44723;DHT22;30451;48.638;10.624;2022-11-20T14:39:50;22.10;56.50
44723;DHT22;30451;48.638;10.624;2022-11-20T14:42:25;22.10;56.50
44723;DHT22;30451;48.638;10.624;2022-11-20T14:44:57;22.10;56.50
44723;DHT22;30451;48.638;10.624;2022-11-20T14:47:26;22.10;56.40
44723;DHT22;30451;48.638;10.624;2022-11-20T14:49:53;22.10;56.40
44723;DHT22;30451;48.638;10.624;2022-11-20T14:52:25;22.10;56.40
44723;DHT22;30451;48.638;10.624;2022-11-20T14:54:53;22.20;56.40
44723;DHT22;30451;48.638;10.624;2022-11-20T14:57:25;22.10;56.40
44723;DHT22;30451;48.638;10.624;2022-11-20T15:00:03;22.20;56.40
44723;DHT22;30451;48.638;10.624;2022-11-20T15:02:30;22.20;56.40
44723;DHT22;30451;48.638;10.624;2022-11-20T15:05:00;22.20;56.40
44723;DHT22;30451;48.638;10.624;2022-11-20T15:07:36;22.20;56.50
44723;DHT22;30451;48.638;10.624;2022-11-20T15:10:03;22.20;56.40
44723;DHT22;30451;48.638;10.624;2022-11-20T15:12:31;22.20;56.50
44723;DHT22;30451;48.638;10.624;2022-11-20T15:14:57;22.20;56.50
44723;DHT22;30451;48.638;10.624;2022-11-20T15:17:23;22.20;56.60
44723;DHT22;30451;48.638;10.624;2022-11-20T15:19:49;22.20;56.50
44723;DHT22;30451;48.638;10.624;2022-11-20T15:22:14;22.20;56.50
44723;DHT22;30451;48.638;10.624;2022-11-20T15:24:41;22.20;56.40
44723;DHT22;30451;48.638;10.624;2022-11-20T15:27:08;22.30;56.40
44723;DHT22;30451;48.638;10.624;2022-11-20T15:29:34;22.20;56.30
44723;DHT22;30451;48.638;10.624;2022-11-20T15:32:00;22.30;56.30
44723;DHT22;30451;48.638;10.624;2022-11-20T15:34:26;22.30;56.30
44723;DHT22;30451;48.638;10.624;2022-11-20T15:36:52;22.30;56.30
44723;DHT22;30451;48.638;10.624;2022-11-20T15:39:18;22.30;56.30
44723;DHT22;30451;48.638;10.624;2022-11-20T15:41:44;22.30;56.30
44723;DHT22;30451;48.638;10.624;2022-11-20T15:44:09;22.30;56.30
44723;DHT22;30451;48.638;10.624;2022-11-20T15:46:40;22.30;56.30
44723;DHT22;30451;48.638;10.624;2022-11-20T15:49:13;22.30;56.20
44723;DHT22;30451;48.638;10.624;2022-11-20T15:51:46;22.30;56.20
44723;DHT22;30451;48.638;10.624;2022-11-20T15:56:38;22.30;56.20
44723;DHT22;30451;48.638;10.624;2022-11-20T15:59:04;22.30;56.20
44723;DHT22;30451;48.638;10.624;2022-11-20T16:01:30;22.30;56.20
44723;DHT22;30451;48.638;10.624;2022-11-20T16:03:56;22.30;56.10
44723;DHT22;30451;48.638;10.624;2022-11-20T16:06:21;22.30;56.10
44723;DHT22;30451;48.638;10.624;2022-11-20T16:08:47;22.30;56.10
44723;DHT22;30451;48.638;10.624;2022-11-20T16:11:14;22.30;56.20
44723;DHT22;30451;48.638;10.624;2022-11-20T16:13:40;22.30;56.20
44723;DHT22;30451;48.638;10.624;2022-11-20T16:16:26;22.30;56.20
44723;DHT22;30451;48.638;10.624;2022-11-20T16:18:54;22.40;56.20
44723;DHT22;30451;48.638;10.624;2022-11-20T16:21:20;22.40;56.20
44723;DHT22;30451;48.638;10.624;2022-11-20T16:23:45;22.40;56.10
44723;DHT22;30451;48.638;10.624;2022-11-20T16:26:17;22.40;56.10
44723;DHT22;30451;48.638;10.624;2022-11-20T16:28:44;22.40;56.10
44723;DHT22;30451;48.638;10.624;2022-11-20T16:31:12;22.40;56.20
44723;DHT22;30451;48.638;10.624;2022-11-20T16:33:38;22.40;56.00
44723;DHT22;30451;48.638;10.624;2022-11-20T16:36:11;22.40;56.10
44723;DHT22;30451;48.638;10.624;2022-11-20T16:38:37;22.40;56.10
44723;DHT22;30451;48.638;10.624;2022-11-20T16:41:04;22.40;56.20
44723;DHT22;30451;48.638;10.624;2022-11-20T16:43:30;22.40;56.10
44723;DHT22;30451;48.638;10.624;2022-11-20T16:45:55;22.40;56.10
44723;DHT22;30451;48.638;10.624;2022-11-20T16:48:21;22.40;56.10
44723;DHT22;30451;48.638;10.624;2022-11-20T16:50:51;22.40;56.20
44723;DHT22;30451;48.638;10.624;2022-11-20T16:53:19;22.40;56.10
44723;DHT22;30451;48.638;10.624;2022-11-20T16:55:45;22.40;56.10
44723;DHT22;30451;48.638;10.624;2022-11-20T16:58:12;22.40;56.10
44723;DHT22;30451;48.638;10.624;2022-11-20T17:00:38;22.40;56.10
44723;DHT22;30451;48.638;10.624;2022-11-20T17:03:07;22.40;56.10
44723;DHT22;30451;48.638;10.624;2022-11-20T17:05:33;22.40;56.00
44723;DHT22;30451;48.638;10.624;2022-11-20T17:08:00;22.40;56.10